sensor_id;sensor_type;location;lat;lon;timestamp;pressure;altitude;pressure_sealevel;temperature
40624;BMP280;26325;48.594;11.650;2023-11-21T00:00:14;96140.28;;;7.62
40624;BMP280;26325;48.594;11.650;2023-11-21T00:02:41;96135.13;;;7.62
40624;BMP280;26325;48.594;11.650;2023-11-21T00:05:11;96133.13;;;7.64
40624;BMP280;26325;48.594;11.650;2023-11-21T00:07:39;96131.84;;;7.67
40624;BMP280;26325;48.594;11.650;2023-11-21T00:10:06;96124.84;;;7.62
40624;BMP280;26325;48.594;11.650;2023-11-21T00:12:34;96122.66;;;7.55
40624;BMP280;26325;48.594;11.650;2023-11-21T00:15:00;96126.69;;;7.51
40624;BMP280;26325;48.594;11.650;2023-11-21T00:17:27;96118.53;;;7.54
40624;BMP280;26325;48.594;11.650;2023-11-21T00:19:53;96114.06;;;7.49
40624;BMP280;26325;48.594;11.650;2023-11-21T00:22:19;96116.41;;;7.51
40624;BMP280;26325;48.594;11.650;2023-11-21T00:24:48;96116.91;;;7.48
40624;BMP280;26325;48.594;11.650;2023-11-21T00:27:14;96116.56;;;7.44
40624;BMP280;26325;48.594;11.650;2023-11-21T00:29:40;96111.50;;;7.49
40624;BMP280;26325;48.594;11.650;2023-11-21T00:32:06;96109.97;;;7.48
40624;BMP280;26325;48.594;11.650;2023-11-21T00:34:32;96112.38;;;7.55
40624;BMP280;26325;48.594;11.650;2023-11-21T00:36:58;96101.94;;;7.61
40624;BMP280;26325;48.594;11.650;2023-11-21T00:39:24;96107.09;;;7.61
40624;BMP280;26325;48.594;11.650;2023-11-21T00:41:51;96116.13;;;7.63
40624;BMP280;26325;48.594;11.650;2023-11-21T00:44:17;96108.44;;;7.63
40624;BMP280;26325;48.594;11.650;2023-11-21T00:46:43;96116.44;;;7.67
40624;BMP280;26325;48.594;11.650;2023-11-21T00:49:08;96114.63;;;7.67
40624;BMP280;26325;48.594;11.650;2023-11-21T00:51:34;96112.06;;;7.67
40624;BMP280;26325;48.594;11.650;2023-11-21T00:54:00;96117.69;;;7.64
40624;BMP280;26325;48.594;11.650;2023-11-21T00:56:26;96108.19;;;7.65
40624;BMP280;26325;48.594;11.650;2023-11-21T00:58:52;96112.00;;;7.62
40624;BMP280;26325;48.594;11.650;2023-11-21T01:01:23;96110.22;;;7.63
40624;BMP280;26325;48.594;11.650;2023-11-21T01:03:50;96106.41;;;7.65
40624;BMP280;26325;48.594;11.650;2023-11-21T01:06:16;96112.63;;;7.69
40624;BMP280;26325;48.594;11.650;2023-11-21T01:08:42;96106.53;;;7.75
40624;BMP280;26325;48.594;11.650;2023-11-21T01:11:08;96114.34;;;7.80
40624;BMP280;26325;48.594;11.650;2023-11-21T01:13:35;96111.22;;;7.78
40624;BMP280;26325;48.594;11.650;2023-11-21T01:16:06;96103.97;;;7.75
40624;BMP280;26325;48.594;11.650;2023-11-21T01:18:35;96101.66;;;7.74
40624;BMP280;26325;48.594;11.650;2023-11-21T01:21:01;96102.75;;;7.78
40624;BMP280;26325;48.594;11.650;2023-11-21T01:23:28;96103.06;;;7.81
40624;BMP280;26325;48.594;11.650;2023-11-21T01:25:57;96099.47;;;7.82
40624;BMP280;26325;48.594;11.650;2023-11-21T01:28:22;96102.13;;;7.87
40624;BMP280;26325;48.594;11.650;2023-11-21T01:30:48;96098.53;;;7.88
40624;BMP280;26325;48.594;11.650;2023-11-21T01:33:14;96098.31;;;7.89
40624;BMP280;26325;48.594;11.650;2023-11-21T01:35:41;96106.56;;;7.91
40624;BMP280;26325;48.594;11.650;2023-11-21T01:38:10;96110.69;;;7.92
40624;BMP280;26325;48.594;11.650;2023-11-21T01:40:35;96100.09;;;7.89
40624;BMP280;26325;48.594;11.650;2023-11-21T01:43:03;96113.78;;;7.94
40624;BMP280;26325;48.594;11.650;2023-11-21T01:45:31;96108.66;;;7.94
40624;BMP280;26325;48.594;11.650;2023-11-21T01:48:00;96107.09;;;7.93
40624;BMP280;26325;48.594;11.650;2023-11-21T01:50:26;96103.50;;;7.94
40624;BMP280;26325;48.594;11.650;2023-11-21T01:52:52;96104.75;;;7.92
40624;BMP280;26325;48.594;11.650;2023-11-21T01:55:18;96094.19;;;7.88
40624;BMP280;26325;48.594;11.650;2023-11-21T01:57:45;96098.59;;;7.93
40624;BMP280;26325;48.594;11.650;2023-11-21T02:00:12;96101.50;;;7.96
40624;BMP280;26325;48.594;11.650;2023-11-21T02:02:46;96098.50;;;7.99
40624;BMP280;26325;48.594;11.650;2023-11-21T02:05:14;96090.97;;;7.98
40624;BMP280;26325;48.594;11.650;2023-11-21T02:07:41;96088.41;;;7.98
40624;BMP280;26325;48.594;11.650;2023-11-21T02:10:08;96093.34;;;7.99
40624;BMP280;26325;48.594;11.650;2023-11-21T02:12:35;96089.97;;;7.98
40624;BMP280;26325;48.594;11.650;2023-11-21T02:15:05;96089.75;;;8.00
40624;BMP280;26325;48.594;11.650;2023-11-21T02:17:37;96076.41;;;8.03
40624;BMP280;26325;48.594;11.650;2023-11-21T02:20:03;96082.66;;;8.07
40624;BMP280;26325;48.594;11.650;2023-11-21T02:22:33;96086.41;;;7.99
40624;BMP280;26325;48.594;11.650;2023-11-21T02:25:03;96085.75;;;7.93
40624;BMP280;26325;48.594;11.650;2023-11-21T02:27:29;96079.03;;;7.92
40624;BMP280;26325;48.594;11.650;2023-11-21T02:29:56;96092.00;;;7.97
40624;BMP280;26325;48.594;11.650;2023-11-21T02:32:24;96090.44;;;7.96
40624;BMP280;26325;48.594;11.650;2023-11-21T02:34:53;96090.44;;;7.96
40624;BMP280;26325;48.594;11.650;2023-11-21T02:37:28;96083.72;;;7.95
40624;BMP280;26325;48.594;11.650;2023-11-21T02:39:54;96081.69;;;7.97
40624;BMP280;26325;48.594;11.650;2023-11-21T02:42:19;96079.38;;;7.95
40624;BMP280;26325;48.594;11.650;2023-11-21T02:44:45;96083.16;;;7.93
40624;BMP280;26325;48.594;11.650;2023-11-21T02:47:10;96071.41;;;7.97
40624;BMP280;26325;48.594;11.650;2023-11-21T02:49:36;96087.94;;;8.00
40624;BMP280;26325;48.594;11.650;2023-11-21T02:52:02;96080.31;;;8.05
40624;BMP280;26325;48.594;11.650;2023-11-21T02:54:27;96077.28;;;8.08
40624;BMP280;26325;48.594;11.650;2023-11-21T02:56:55;96080.31;;;8.05
40624;BMP280;26325;48.594;11.650;2023-11-21T02:59:23;96076.75;;;8.06
40624;BMP280;26325;48.594;11.650;2023-11-21T03:01:49;96076.03;;;8.11
40624;BMP280;26325;48.594;11.650;2023-11-21T03:04:15;96076.56;;;8.13
40624;BMP280;26325;48.594;11.650;2023-11-21T03:06:44;96072.22;;;8.13
40624;BMP280;26325;48.594;11.650;2023-11-21T03:09:10;96068.06;;;8.12
40624;BMP280;26325;48.594;11.650;2023-11-21T03:11:38;96072.97;;;8.14
40624;BMP280;26325;48.594;11.650;2023-11-21T03:14:03;96072.66;;;8.10
40624;BMP280;26325;48.594;11.650;2023-11-21T03:16:32;96064.44;;;8.08
40624;BMP280;26325;48.594;11.650;2023-11-21T03:18:57;96063.94;;;8.11
40624;BMP280;26325;48.594;11.650;2023-11-21T03:21:24;96070.63;;;8.12
40624;BMP280;26325;48.594;11.650;2023-11-21T03:23:51;96071.88;;;8.10
40624;BMP280;26325;48.594;11.650;2023-11-21T03:26:18;96073.84;;;8.03
40624;BMP280;26325;48.594;11.650;2023-11-21T03:28:43;96074.09;;;8.01
40624;BMP280;26325;48.594;11.650;2023-11-21T03:31:09;96074.09;;;8.01
40624;BMP280;26325;48.594;11.650;2023-11-21T03:33:38;96068.47;;;8.04
40624;BMP280;26325;48.594;11.650;2023-11-21T03:36:04;96071.06;;;8.04
40624;BMP280;26325;48.594;11.650;2023-11-21T03:38:32;96067.47;;;8.05
40624;BMP280;26325;48.594;11.650;2023-11-21T03:41:00;96064.91;;;8.05
40624;BMP280;26325;48.594;11.650;2023-11-21T03:43:25;96059.97;;;8.04
40624;BMP280;26325;48.594;11.650;2023-11-21T03:45:51;96064.56;;;8.02
40624;BMP280;26325;48.594;11.650;2023-11-21T03:48:16;96068.47;;;8.04
40624;BMP280;26325;48.594;11.650;2023-11-21T03:50:42;96068.53;;;8.09
40624;BMP280;26325;48.594;11.650;2023-11-21T03:53:07;96068.53;;;8.09
40624;BMP280;26325;48.594;11.650;2023-11-21T03:55:33;96066.75;;;8.10
40624;BMP280;26325;48.594;11.650;2023-11-21T03:58:01;96074.84;;;8.02
40624;BMP280;26325;48.594;11.650;2023-11-21T04:00:27;96071.00;;;7.99
40624;BMP280;26325;48.594;11.650;2023-11-21T04:02:53;96070.88;;;7.95
40624;BMP280;26325;48.594;11.650;2023-11-21T04:05:21;96078.28;;;7.91
40624;BMP280;26325;48.594;11.650;2023-11-21T04:07:50;96078.28;;;7.91
40624;BMP280;26325;48.594;11.650;2023-11-21T04:10:16;96073.44;;;7.95
40624;BMP280;26325;48.594;11.650;2023-11-21T04:12:42;96072.97;;;7.98
40624;BMP280;26325;48.594;11.650;2023-11-21T04:15:09;96072.19;;;7.97
40624;BMP280;26325;48.594;11.650;2023-11-21T04:17:35;96077.34;;;7.97
40624;BMP280;26325;48.594;11.650;2023-11-21T04:20:04;96071.41;;;7.97
40624;BMP280;26325;48.594;11.650;2023-11-21T04:22:37;96078.56;;;7.95
40624;BMP280;26325;48.594;11.650;2023-11-21T04:25:15;96069.41;;;7.98
40624;BMP280;26325;48.594;11.650;2023-11-21T04:27:42;96072.50;;;8.00
40624;BMP280;26325;48.594;11.650;2023-11-21T04:32:35;96078.44;;;8.01
40624;BMP280;26325;48.594;11.650;2023-11-21T04:35:02;96081.28;;;7.99
40624;BMP280;26325;48.594;11.650;2023-11-21T04:37:29;96071.00;;;7.99
40624;BMP280;26325;48.594;11.650;2023-11-21T04:39:54;96081.69;;;7.97
40624;BMP280;26325;48.594;11.650;2023-11-21T04:42:20;96080.59;;;7.93
40624;BMP280;26325;48.594;11.650;2023-11-21T04:44:45;96074.53;;;7.98
40624;BMP280;26325;48.594;11.650;2023-11-21T04:47:11;96089.19;;;7.98
40624;BMP280;26325;48.594;11.650;2023-11-21T04:49:37;96087.25;;;8.05
40624;BMP280;26325;48.594;11.650;2023-11-21T04:52:03;96084.22;;;8.08
40624;BMP280;26325;48.594;11.650;2023-11-21T04:54:30;96088.72;;;8.01
40624;BMP280;26325;48.594;11.650;2023-11-21T04:56:56;96087.84;;;7.96
40624;BMP280;26325;48.594;11.650;2023-11-21T04:59:22;96086.53;;;7.93
40624;BMP280;26325;48.594;11.650;2023-11-21T05:01:50;96096.50;;;7.90
40624;BMP280;26325;48.594;11.650;2023-11-21T05:04:16;96095.78;;;7.94
40624;BMP280;26325;48.594;11.650;2023-11-21T05:06:42;96091.91;;;7.92
40624;BMP280;26325;48.594;11.650;2023-11-21T05:09:07;96099.69;;;7.97
40624;BMP280;26325;48.594;11.650;2023-11-21T05:11:39;96103.50;;;7.94
40624;BMP280;26325;48.594;11.650;2023-11-21T05:14:06;96096.81;;;7.93
40624;BMP280;26325;48.594;11.650;2023-11-21T05:16:32;96094.47;;;7.92
40624;BMP280;26325;48.594;11.650;2023-11-21T05:18:57;96089.03;;;7.88
40624;BMP280;26325;48.594;11.650;2023-11-21T05:21:30;96093.84;;;7.85
40624;BMP280;26325;48.594;11.650;2023-11-21T05:23:58;96099.22;;;7.83
40624;BMP280;26325;48.594;11.650;2023-11-21T05:26:24;96097.44;;;7.84
40624;BMP280;26325;48.594;11.650;2023-11-21T05:28:50;96103.44;;;7.89
40624;BMP280;26325;48.594;11.650;2023-11-21T05:31:15;96099.16;;;7.95
40624;BMP280;26325;48.594;11.650;2023-11-21T05:33:41;96097.59;;;7.94
40624;BMP280;26325;48.594;11.650;2023-11-21T05:36:07;96095.72;;;7.89
40624;BMP280;26325;48.594;11.650;2023-11-21T05:38:36;96091.75;;;7.82
40624;BMP280;26325;48.594;11.650;2023-11-21T05:41:02;96092.28;;;7.84
40624;BMP280;26325;48.594;11.650;2023-11-21T05:43:30;96091.50;;;7.83
40624;BMP280;26325;48.594;11.650;2023-11-21T05:45:56;96096.34;;;7.80
40624;BMP280;26325;48.594;11.650;2023-11-21T05:48:22;96095.81;;;7.78
40624;BMP280;26325;48.594;11.650;2023-11-21T05:50:47;96095.47;;;7.75
40624;BMP280;26325;48.594;11.650;2023-11-21T05:53:15;96103.28;;;7.79
40624;BMP280;26325;48.594;11.650;2023-11-21T05:58:08;96104.47;;;7.72
40624;BMP280;26325;48.594;11.650;2023-11-21T06:00:34;96107.31;;;7.76
40624;BMP280;26325;48.594;11.650;2023-11-21T06:03:00;96113.19;;;7.71
40624;BMP280;26325;48.594;11.650;2023-11-21T06:05:26;96111.06;;;7.68
40624;BMP280;26325;48.594;11.650;2023-11-21T06:07:53;96108.66;;;7.62
40624;BMP280;26325;48.594;11.650;2023-11-21T06:10:21;96118.16;;;7.61
40624;BMP280;26325;48.594;11.650;2023-11-21T06:12:49;96111.91;;;7.58
40624;BMP280;26325;48.594;11.650;2023-11-21T06:15:14;96120.09;;;7.55
40624;BMP280;26325;48.594;11.650;2023-11-21T06:17:41;96126.25;;;7.54
40624;BMP280;26325;48.594;11.650;2023-11-21T06:20:09;96128.25;;;7.52
40624;BMP280;26325;48.594;11.650;2023-11-21T06:22:45;96122.56;;;7.50
40624;BMP280;26325;48.594;11.650;2023-11-21T06:25:13;96119.38;;;7.43
40624;BMP280;26325;48.594;11.650;2023-11-21T06:27:42;96134.47;;;7.40
40624;BMP280;26325;48.594;11.650;2023-11-21T06:30:11;96128.44;;;7.34
40624;BMP280;26325;48.594;11.650;2023-11-21T06:32:38;96140.22;;;7.30
40624;BMP280;26325;48.594;11.650;2023-11-21T06:35:08;96140.66;;;7.27
40624;BMP280;26325;48.594;11.650;2023-11-21T06:37:35;96147.66;;;7.32
40624;BMP280;26325;48.594;11.650;2023-11-21T06:40:01;96145.66;;;7.34
40624;BMP280;26325;48.594;11.650;2023-11-21T06:42:29;96146.88;;;7.31
40624;BMP280;26325;48.594;11.650;2023-11-21T06:44:54;96147.66;;;7.32
40624;BMP280;26325;48.594;11.650;2023-11-21T06:47:23;96156.16;;;7.32
40624;BMP280;26325;48.594;11.650;2023-11-21T06:49:53;96161.97;;;7.39
40624;BMP280;26325;48.594;11.650;2023-11-21T06:52:19;96157.81;;;7.38
40624;BMP280;26325;48.594;11.650;2023-11-21T06:54:47;96160.91;;;7.40
40624;BMP280;26325;48.594;11.650;2023-11-21T06:57:12;96160.25;;;7.44
40624;BMP280;26325;48.594;11.650;2023-11-21T06:59:38;96162.59;;;7.46
40624;BMP280;26325;48.594;11.650;2023-11-21T07:02:04;96168.59;;;7.51
40624;BMP280;26325;48.594;11.650;2023-11-21T07:04:35;96167.72;;;7.46
40624;BMP280;26325;48.594;11.650;2023-11-21T07:07:03;96167.72;;;7.46
40624;BMP280;26325;48.594;11.650;2023-11-21T07:09:29;96172.94;;;7.51
40624;BMP280;26325;48.594;11.650;2023-11-21T07:11:55;96174.59;;;7.57
40624;BMP280;26325;48.594;11.650;2023-11-21T07:16:48;96177.44;;;7.71
40624;BMP280;26325;48.594;11.650;2023-11-21T07:19:14;96174.16;;;7.76
40624;BMP280;26325;48.594;11.650;2023-11-21T07:21:40;96181.19;;;7.80
40624;BMP280;26325;48.594;11.650;2023-11-21T07:24:07;96180.59;;;7.89
40624;BMP280;26325;48.594;11.650;2023-11-21T07:26:34;96185.00;;;7.94
40624;BMP280;26325;48.594;11.650;2023-11-21T07:31:26;96180.16;;;8.08
40624;BMP280;26325;48.594;11.650;2023-11-21T07:33:52;96193.41;;;8.17
40624;BMP280;26325;48.594;11.650;2023-11-21T07:36:19;96194.50;;;8.20
40624;BMP280;26325;48.594;11.650;2023-11-21T07:38:46;96197.38;;;8.24
40624;BMP280;26325;48.594;11.650;2023-11-21T07:41:11;96192.06;;;8.30
40624;BMP280;26325;48.594;11.650;2023-11-21T07:43:41;96203.22;;;8.36
40624;BMP280;26325;48.594;11.650;2023-11-21T07:46:07;96194.25;;;8.38
40624;BMP280;26325;48.594;11.650;2023-11-21T07:48:34;96204.38;;;8.44
40624;BMP280;26325;48.594;11.650;2023-11-21T07:51:02;96206.81;;;8.51
40624;BMP280;26325;48.594;11.650;2023-11-21T07:53:30;96208.06;;;8.48
40624;BMP280;26325;48.594;11.650;2023-11-21T07:55:57;96204.38;;;8.44
40624;BMP280;26325;48.594;11.650;2023-11-21T07:58:23;96217.63;;;8.37
40624;BMP280;26325;48.594;11.650;2023-11-21T08:00:50;96208.75;;;8.28
40624;BMP280;26325;48.594;11.650;2023-11-21T08:03:16;96209.25;;;8.25
40624;BMP280;26325;48.594;11.650;2023-11-21T08:05:42;96206.66;;;8.25
40624;BMP280;26325;48.594;11.650;2023-11-21T08:08:08;96211.50;;;8.21
40624;BMP280;26325;48.594;11.650;2023-11-21T08:10:34;96209.69;;;8.22
40624;BMP280;26325;48.594;11.650;2023-11-21T08:13:02;96210.78;;;8.26
40624;BMP280;26325;48.594;11.650;2023-11-21T08:15:27;96210.09;;;8.30
40624;BMP280;26325;48.594;11.650;2023-11-21T08:17:53;96210.41;;;8.34
40624;BMP280;26325;48.594;11.650;2023-11-21T08:20:19;96209.91;;;8.37
40624;BMP280;26325;48.594;11.650;2023-11-21T08:22:44;96204.09;;;8.25
40624;BMP280;26325;48.594;11.650;2023-11-21T08:25:10;96213.44;;;8.31
40624;BMP280;26325;48.594;11.650;2023-11-21T08:27:36;96217.19;;;8.23
40624;BMP280;26325;48.594;11.650;2023-11-21T08:30:06;96206.50;;;8.15
40624;BMP280;26325;48.594;11.650;2023-11-21T08:32:32;96208.59;;;8.02
40624;BMP280;26325;48.594;11.650;2023-11-21T08:34:59;96207.78;;;8.01
40624;BMP280;26325;48.594;11.650;2023-11-21T08:37:25;96200.41;;;8.05
40624;BMP280;26325;48.594;11.650;2023-11-21T08:39:53;96207.97;;;8.11
40624;BMP280;26325;48.594;11.650;2023-11-21T08:42:21;96208.47;;;8.08
40624;BMP280;26325;48.594;11.650;2023-11-21T08:44:48;96213.59;;;8.08
40624;BMP280;26325;48.594;11.650;2023-11-21T08:47:14;96215.91;;;8.10
40624;BMP280;26325;48.594;11.650;2023-11-21T08:49:39;96215.50;;;8.01
40624;BMP280;26325;48.594;11.650;2023-11-21T08:52:05;96220.66;;;8.01
40624;BMP280;26325;48.594;11.650;2023-11-21T08:54:32;96220.13;;;7.99
40624;BMP280;26325;48.594;11.650;2023-11-21T08:56:57;96215.63;;;7.95
40624;BMP280;26325;48.594;11.650;2023-11-21T08:59:26;96219.00;;;7.96
40624;BMP280;26325;48.594;11.650;2023-11-21T09:01:52;96212.63;;;7.98
40624;BMP280;26325;48.594;11.650;2023-11-21T09:04:17;96225.97;;;8.11
40624;BMP280;26325;48.594;11.650;2023-11-21T09:06:43;96224.69;;;8.25
40624;BMP280;26325;48.594;11.650;2023-11-21T09:09:08;96230.81;;;8.24
40624;BMP280;26325;48.594;11.650;2023-11-21T09:11:36;96233.56;;;8.34
40624;BMP280;26325;48.594;11.650;2023-11-21T09:14:05;96235.53;;;8.43
40624;BMP280;26325;48.594;11.650;2023-11-21T09:16:31;96229.19;;;8.50
40624;BMP280;26325;48.594;11.650;2023-11-21T09:18:57;96232.84;;;8.54
40624;BMP280;26325;48.594;11.650;2023-11-21T09:21:22;96228.44;;;8.71
40624;BMP280;26325;48.594;11.650;2023-11-21T09:23:49;96223.03;;;8.88
40624;BMP280;26325;48.594;11.650;2023-11-21T09:26:17;96232.06;;;9.07
40624;BMP280;26325;48.594;11.650;2023-11-21T09:28:44;96227.91;;;9.06
40624;BMP280;26325;48.594;11.650;2023-11-21T09:31:13;96231.00;;;9.03
40624;BMP280;26325;48.594;11.650;2023-11-21T09:33:42;96240.38;;;9.13
40624;BMP280;26325;48.594;11.650;2023-11-21T09:36:12;96243.25;;;9.38
40624;BMP280;26325;48.594;11.650;2023-11-21T09:38:39;96243.81;;;9.61
40624;BMP280;26325;48.594;11.650;2023-11-21T09:43:54;96238.53;;;9.72
40624;BMP280;26325;48.594;11.650;2023-11-21T09:46:23;96240.59;;;9.75
40624;BMP280;26325;48.594;11.650;2023-11-21T09:48:51;96235.22;;;9.76
40624;BMP280;26325;48.594;11.650;2023-11-21T09:51:20;96245.66;;;9.86
40624;BMP280;26325;48.594;11.650;2023-11-21T09:53:49;96236.56;;;9.79
40624;BMP280;26325;48.594;11.650;2023-11-21T09:56:19;96245.03;;;10.00
40624;BMP280;26325;48.594;11.650;2023-11-21T09:58:54;96247.41;;;10.07
40624;BMP280;26325;48.594;11.650;2023-11-21T10:01:23;96249.75;;;10.08
40624;BMP280;26325;48.594;11.650;2023-11-21T10:03:52;96236.41;;;9.90
40624;BMP280;26325;48.594;11.650;2023-11-21T10:06:20;96242.63;;;9.89
40624;BMP280;26325;48.594;11.650;2023-11-21T10:08:46;96240.28;;;9.88
40624;BMP280;26325;48.594;11.650;2023-11-21T10:11:14;96247.59;;;10.00
40624;BMP280;26325;48.594;11.650;2023-11-21T10:13:40;96247.47;;;9.86
40624;BMP280;26325;48.594;11.650;2023-11-21T10:16:07;96242.25;;;9.81
40624;BMP280;26325;48.594;11.650;2023-11-21T10:18:39;96245.19;;;9.68
40624;BMP280;26325;48.594;11.650;2023-11-21T10:21:07;96236.97;;;9.71
40624;BMP280;26325;48.594;11.650;2023-11-21T10:23:34;96246.78;;;9.74
40624;BMP280;26325;48.594;11.650;2023-11-21T10:26:00;96246.09;;;9.78
40624;BMP280;26325;48.594;11.650;2023-11-21T10:28:26;96246.66;;;9.80
40624;BMP280;26325;48.594;11.650;2023-11-21T10:30:52;96244.41;;;9.89
40624;BMP280;26325;48.594;11.650;2023-11-21T10:33:27;96248.00;;;9.88
40624;BMP280;26325;48.594;11.650;2023-11-21T10:35:52;96253.66;;;9.85
40624;BMP280;26325;48.594;11.650;2023-11-21T10:38:21;96247.22;;;9.87
40624;BMP280;26325;48.594;11.650;2023-11-21T10:40:49;96253.16;;;9.88
40624;BMP280;26325;48.594;11.650;2023-11-21T10:43:15;96244.59;;;9.82
40624;BMP280;26325;48.594;11.650;2023-11-21T10:45:43;96256.78;;;9.87
40624;BMP280;26325;48.594;11.650;2023-11-21T10:48:12;96254.28;;;9.75
40624;BMP280;26325;48.594;11.650;2023-11-21T10:50:43;96245.72;;;9.70
40624;BMP280;26325;48.594;11.650;2023-11-21T10:53:09;96261.47;;;9.73
40624;BMP280;26325;48.594;11.650;2023-11-21T10:55:34;96264.00;;;9.69
40624;BMP280;26325;48.594;11.650;2023-11-21T10:58:02;96256.19;;;9.64
40624;BMP280;26325;48.594;11.650;2023-11-21T11:00:31;96258.44;;;9.55
40624;BMP280;26325;48.594;11.650;2023-11-21T11:02:57;96257.28;;;9.68
40624;BMP280;26325;48.594;11.650;2023-11-21T11:05:29;96258.53;;;9.65
40624;BMP280;26325;48.594;11.650;2023-11-21T11:08:08;96251.84;;;9.64
40624;BMP280;26325;48.594;11.650;2023-11-21T11:10:39;96254.53;;;9.74
40624;BMP280;26325;48.594;11.650;2023-11-21T11:13:07;96247.88;;;9.78
40624;BMP280;26325;48.594;11.650;2023-11-21T11:15:32;96251.88;;;9.90
40624;BMP280;26325;48.594;11.650;2023-11-21T11:17:59;96246.31;;;9.98
40624;BMP280;26325;48.594;11.650;2023-11-21T11:20:34;96245.59;;;10.07
40624;BMP280;26325;48.594;11.650;2023-11-21T11:32:15;96250.94;;;10.22
40624;BMP280;26325;48.594;11.650;2023-11-21T11:37:15;96244.13;;;10.16
40624;BMP280;26325;48.594;11.650;2023-11-21T11:39:42;96252.22;;;10.24
40624;BMP280;26325;48.594;11.650;2023-11-21T11:42:14;96250.09;;;10.16
40624;BMP280;26325;48.594;11.650;2023-11-21T11:47:24;96253.00;;;10.25
40624;BMP280;26325;48.594;11.650;2023-11-21T11:50:07;96249.16;;;10.27
40624;BMP280;26325;48.594;11.650;2023-11-21T11:52:42;96239.84;;;10.26
40624;BMP280;26325;48.594;11.650;2023-11-21T11:55:20;96239.06;;;10.26
40624;BMP280;26325;48.594;11.650;2023-11-21T11:57:49;96250.94;;;10.22
40624;BMP280;26325;48.594;11.650;2023-11-21T12:00:22;96245.69;;;10.17
40624;BMP280;26325;48.594;11.650;2023-11-21T12:03:01;96255.22;;;10.11
40624;BMP280;26325;48.594;11.650;2023-11-21T12:05:34;96257.56;;;10.13
40624;BMP280;26325;48.594;11.650;2023-11-21T12:08:08;96256.97;;;10.06
40624;BMP280;26325;48.594;11.650;2023-11-21T12:10:38;96259.44;;;9.96
40624;BMP280;26325;48.594;11.650;2023-11-21T12:13:10;96252.50;;;9.97
40624;BMP280;26325;48.594;11.650;2023-11-21T12:15:38;96254.31;;;10.01
40624;BMP280;26325;48.594;11.650;2023-11-21T12:18:04;96250.63;;;9.92
40624;BMP280;26325;48.594;11.650;2023-11-21T12:20:31;96248.59;;;9.94
40624;BMP280;26325;48.594;11.650;2023-11-21T12:23:00;96249.13;;;9.96
40624;BMP280;26325;48.594;11.650;2023-11-21T12:25:31;96243.75;;;9.98
40624;BMP280;26325;48.594;11.650;2023-11-21T12:28:02;96251.22;;;9.99
40624;BMP280;26325;48.594;11.650;2023-11-21T12:30:33;96251.22;;;9.99
40624;BMP280;26325;48.594;11.650;2023-11-21T12:33:02;96249.59;;;9.93
40624;BMP280;26325;48.594;11.650;2023-11-21T12:35:30;96250.63;;;9.92
40624;BMP280;26325;48.594;11.650;2023-11-21T12:40:25;96246.88;;;9.79
40624;BMP280;26325;48.594;11.650;2023-11-21T12:42:57;96257.09;;;9.74
40624;BMP280;26325;48.594;11.650;2023-11-21T12:48:01;96248.44;;;9.80
40624;BMP280;26325;48.594;11.650;2023-11-21T12:50:31;96248.69;;;9.78
40624;BMP280;26325;48.594;11.650;2023-11-21T12:53:02;96245.88;;;9.80
40624;BMP280;26325;48.594;11.650;2023-11-21T12:55:33;96252.09;;;9.84
40624;BMP280;26325;48.594;11.650;2023-11-21T12:58:02;96252.09;;;9.84
40624;BMP280;26325;48.594;11.650;2023-11-21T13:00:44;96257.53;;;9.87
40624;BMP280;26325;48.594;11.650;2023-11-21T13:03:12;96258.03;;;9.84
40624;BMP280;26325;48.594;11.650;2023-11-21T13:05:41;96259.34;;;9.87
40624;BMP280;26325;48.594;11.650;2023-11-21T13:08:12;96262.19;;;9.90
40624;BMP280;26325;48.594;11.650;2023-11-21T13:10:43;96261.72;;;9.93
40624;BMP280;26325;48.594;11.650;2023-11-21T13:13:13;96260.47;;;9.95
40624;BMP280;26325;48.594;11.650;2023-11-21T13:18:14;96265.97;;;10.04
40624;BMP280;26325;48.594;11.650;2023-11-21T13:20:44;96274.28;;;10.10
40624;BMP280;26325;48.594;11.650;2023-11-21T13:23:10;96274.59;;;10.14
40624;BMP280;26325;48.594;11.650;2023-11-21T13:25:44;96271.28;;;10.18
40624;BMP280;26325;48.594;11.650;2023-11-21T13:28:16;96283.16;;;10.19
40624;BMP280;26325;48.594;11.650;2023-11-21T13:30:44;96277.50;;;10.22
40624;BMP280;26325;48.594;11.650;2023-11-21T13:33:12;96284.97;;;10.24
40624;BMP280;26325;48.594;11.650;2023-11-21T13:35:44;96288.63;;;10.23
40624;BMP280;26325;48.594;11.650;2023-11-21T13:38:15;96293.28;;;10.26
40624;BMP280;26325;48.594;11.650;2023-11-21T13:40:47;96293.78;;;10.23
40624;BMP280;26325;48.594;11.650;2023-11-21T13:43:25;96289.56;;;10.17
40624;BMP280;26325;48.594;11.650;2023-11-21T13:45:53;96289.56;;;10.17
40624;BMP280;26325;48.594;11.650;2023-11-21T13:48:28;96290.00;;;10.09
40624;BMP280;26325;48.594;11.650;2023-11-21T13:50:59;96298.25;;;10.06
40624;BMP280;26325;48.594;11.650;2023-11-21T13:53:34;96298.25;;;10.06
40624;BMP280;26325;48.594;11.650;2023-11-21T13:56:03;96294.63;;;10.07
40624;BMP280;26325;48.594;11.650;2023-11-21T13:58:29;96300.09;;;10.10
40624;BMP280;26325;48.594;11.650;2023-11-21T14:01:13;96310.63;;;10.04
40624;BMP280;26325;48.594;11.650;2023-11-21T14:04:02;96314.22;;;10.03
40624;BMP280;26325;48.594;11.650;2023-11-21T14:06:46;96311.94;;;9.86
40624;BMP280;26325;48.594;11.650;2023-11-21T14:09:22;96317.94;;;9.91
40624;BMP280;26325;48.594;11.650;2023-11-21T14:11:53;96305.78;;;9.87
40624;BMP280;26325;48.594;11.650;2023-11-21T14:14:23;96313.50;;;9.87
40624;BMP280;26325;48.594;11.650;2023-11-21T14:16:54;96318.34;;;9.83
40624;BMP280;26325;48.594;11.650;2023-11-21T14:19:21;96317.81;;;9.81
40624;BMP280;26325;48.594;11.650;2023-11-21T14:21:47;96318.06;;;9.80
40624;BMP280;26325;48.594;11.650;2023-11-21T14:24:16;96322.91;;;9.76
40624;BMP280;26325;48.594;11.650;2023-11-21T14:26:46;96317.44;;;9.73
40624;BMP280;26325;48.594;11.650;2023-11-21T14:29:16;96315.91;;;9.72
40624;BMP280;26325;48.594;11.650;2023-11-21T14:31:45;96318.63;;;9.66
40624;BMP280;26325;48.594;11.650;2023-11-21T14:34:14;96323.38;;;9.73
40624;BMP280;26325;48.594;11.650;2023-11-21T14:36:40;96318.47;;;9.72
40624;BMP280;26325;48.594;11.650;2023-11-21T14:39:06;96321.44;;;9.64
40624;BMP280;26325;48.594;11.650;2023-11-21T14:41:35;96315.78;;;9.62
40624;BMP280;26325;48.594;11.650;2023-11-21T14:44:02;96317.34;;;9.63